createdAt,value
2023-03-01T00:01:43.541Z,25.07
2023-03-01T00:06:35.290Z,22.83
2023-03-01T00:11:30.362Z,22.53
2023-03-01T00:16:29.504Z,23.47
2023-03-01T00:21:23.074Z,23.40
2023-03-01T00:26:16.159Z,21.40
2023-03-01T00:31:15.812Z,22.03
2023-03-01T00:36:08.250Z,22.97
2023-03-01T00:41:09.740Z,22.83
2023-03-01T00:46:13.472Z,23.70
2023-03-01T00:51:21.422Z,25.73
2023-03-01T00:56:15.699Z,26.63
2023-03-01T01:01:18.651Z,24.93
2023-03-01T01:06:19.789Z,28.20
2023-03-01T01:11:12.901Z,26.37
2023-03-01T01:16:05.122Z,29.00
2023-03-01T01:20:56.858Z,29.60
2023-03-01T01:25:48.544Z,27.17
2023-03-01T01:30:40.208Z,27.13
2023-03-01T01:35:31.898Z,31.30
2023-03-01T01:40:23.575Z,27.83
2023-03-01T01:45:35.698Z,27.83
2023-03-01T01:50:28.476Z,26.37
2023-03-01T01:55:28.369Z,29.17
2023-03-01T02:00:27.881Z,27.10
2023-03-01T02:05:26.989Z,28.23
2023-03-01T02:10:19.002Z,29.60
2023-03-01T02:15:11.319Z,30.47
2023-03-01T02:20:17.564Z,26.90
2023-03-01T02:25:19.573Z,28.27
2023-03-01T02:30:13.162Z,29.47
2023-03-01T02:35:07.372Z,32.60
2023-03-01T02:40:06.262Z,29.07
2023-03-01T02:44:58.000Z,33.37
2023-03-01T02:49:49.702Z,30.60
2023-03-01T02:55:02.913Z,27.07
2023-03-01T03:05:12.627Z,31.20
2023-03-01T03:10:08.523Z,31.90
2023-03-01T03:20:11.911Z,27.97
2023-03-01T03:25:03.855Z,27.50
2023-03-01T03:29:55.562Z,25.43
2023-03-01T03:34:47.244Z,25.40
2023-03-01T03:39:38.912Z,27.27
2023-03-01T03:44:30.627Z,24.13
2023-03-01T03:49:22.398Z,27.10
2023-03-01T03:54:14.338Z,24.60
2023-03-01T03:59:06.784Z,28.43
2023-03-01T04:04:04.879Z,27.47
2023-03-01T04:08:59.206Z,28.33
2023-03-01T04:13:53.747Z,27.30
2023-03-01T04:18:46.442Z,26.57
2023-03-01T04:23:38.883Z,33.57
2023-03-01T04:28:46.632Z,28.17
2023-03-01T04:33:38.298Z,24.93
2023-03-01T04:38:30.039Z,25.63
2023-03-01T04:43:21.712Z,27.03
2023-03-01T05:08:43.734Z,29.63
2023-03-01T05:29:02.819Z,30.37
2023-03-01T06:35:20.269Z,24.63
2023-03-01T06:40:18.486Z,33.57
2023-03-01T07:10:45.749Z,26.33
2023-03-01T07:41:37.647Z,32.83
2023-03-01T07:51:54.840Z,27.00
2023-03-01T08:27:28.970Z,30.33
2023-03-01T08:37:31.426Z,28.37
2023-03-01T13:11:05.226Z,28.10
2023-03-01T13:36:41.166Z,25.57
2023-03-01T13:41:49.310Z,26.77
2023-03-01T14:23:56.337Z,29.73
2023-03-01T15:05:50.303Z,27.37
2023-03-01T16:39:23.463Z,31.47
2023-03-01T16:44:21.052Z,29.37
2023-03-01T17:24:56.474Z,32.80
2023-03-01T17:34:54.773Z,30.10
2023-03-01T18:10:34.760Z,28.87
2023-03-01T18:35:54.483Z,25.13
2023-03-01T18:46:14.809Z,26.03
2023-03-01T18:51:18.550Z,31.07
2023-03-01T19:11:56.186Z,25.50
2023-03-01T19:16:49.809Z,28.60
2023-03-01T19:26:50.630Z,30.40
2023-03-01T19:31:43.000Z,27.00
2023-03-01T19:36:35.859Z,29.10
2023-03-01T19:56:48.589Z,31.37
2023-03-01T20:01:45.475Z,26.93
2023-03-01T20:06:39.176Z,31.53
2023-03-01T20:16:43.818Z,29.27
2023-03-01T20:21:41.125Z,30.20
2023-03-01T20:26:35.343Z,28.80
2023-03-01T20:31:30.328Z,32.13
2023-03-01T20:41:29.745Z,28.20
2023-03-01T20:46:25.170Z,30.00
2023-03-01T20:51:18.704Z,30.20
2023-03-01T20:56:22.308Z,31.00
2023-03-01T21:01:22.047Z,30.77
2023-03-01T21:11:22.088Z,26.47
2023-03-01T21:21:27.462Z,29.50
2023-03-01T21:26:27.249Z,32.53
2023-03-01T21:31:27.856Z,34.70
2023-03-01T21:36:22.280Z,29.50
2023-03-01T21:41:19.566Z,32.43
2023-03-01T21:46:16.921Z,32.67
2023-03-01T21:51:11.566Z,33.67
2023-03-01T21:56:10.866Z,32.53
2023-03-01T22:01:13.741Z,32.27
2023-03-01T22:06:07.001Z,31.00
2023-03-01T22:11:03.022Z,32.73
2023-03-01T22:15:55.875Z,33.23
2023-03-01T22:20:48.220Z,34.60
2023-03-01T22:25:43.250Z,32.77
2023-03-01T22:30:36.170Z,30.50
2023-03-01T22:35:28.228Z,32.07
2023-03-01T22:40:20.353Z,34.03
2023-03-01T22:45:12.866Z,34.63
2023-03-01T22:50:09.054Z,31.13
2023-03-01T22:55:09.477Z,30.80
2023-03-01T23:00:02.407Z,32.53
2023-03-01T23:04:54.728Z,33.10
2023-03-01T23:09:48.870Z,29.20
2023-03-01T23:14:46.844Z,33.43
2023-03-01T23:19:39.194Z,35.00
2023-03-01T23:24:33.842Z,30.63
2023-03-01T23:29:27.474Z,36.10
2023-03-01T23:34:21.491Z,31.60
2023-03-01T23:39:16.463Z,35.07
2023-03-01T23:44:08.852Z,36.43
2023-03-01T23:49:01.573Z,35.23
2023-03-01T23:54:02.299Z,35.53
2023-03-01T23:59:04.948Z,38.00
